Terminal Aerodrome Forecast
Issued by NWS Wilmington, OH

Home | Current Version | Previous Version | Text Only | Print | Product List | Glossary On
Versions: 1 2 3 4 5 6 7 8 9 10 11 12 13 14 15 16 17 18 19
000
FTUS41 KILN 041700
TAFDAY
TAF
KDAY 041738Z 0418/0518 33010KT P6SM SCT015 OVC022
      TEMPO 0418/0420 5SM -SN BR OVC015
     FM042000 33014KT 2SM -SN OVC015
     FM050200 34011KT P6SM SCT015 OVC060
     FM051000 34010KT P6SM BKN025=

USA.gov is the U.S. government's official web portal to all federal, state and local government web resources and services.